createdAt,value
2022-07-26T00:00:10.007Z,9.15
2022-07-26T00:02:36.780Z,8.68
2022-07-26T00:05:03.840Z,9.13
2022-07-26T00:07:36.580Z,8.18
2022-07-26T00:10:05.196Z,9.13
2022-07-26T00:12:32.199Z,8.00
2022-07-26T00:14:58.869Z,8.57
2022-07-26T00:17:25.568Z,8.93
2022-07-26T00:19:52.356Z,8.50
2022-07-26T00:22:34.061Z,8.68
2022-07-26T00:25:02.083Z,8.60
2022-07-26T00:27:28.725Z,9.18
2022-07-26T00:29:55.296Z,9.35
2022-07-26T00:32:22.018Z,8.82
2022-07-26T00:34:48.800Z,9.55
2022-07-26T00:37:20.092Z,8.25
2022-07-26T00:39:47.391Z,8.80
2022-07-26T00:42:14.030Z,8.02
2022-07-26T00:44:41.241Z,8.65
2022-07-26T00:47:08.083Z,8.98
2022-07-26T00:49:34.753Z,8.63
2022-07-26T00:52:01.738Z,7.32
2022-07-26T00:54:28.476Z,7.43
2022-07-26T00:56:55.365Z,6.85
2022-07-26T00:59:22.047Z,7.20
2022-07-26T01:01:48.812Z,7.20
2022-07-26T01:04:15.707Z,7.05
2022-07-26T01:06:42.482Z,7.15
2022-07-26T01:09:09.335Z,7.45
2022-07-26T01:11:35.953Z,7.88
2022-07-26T01:14:02.923Z,6.90
2022-07-26T01:16:29.594Z,6.65
2022-07-26T01:18:56.262Z,6.53
2022-07-26T01:21:22.887Z,6.25
2022-07-26T01:23:49.965Z,6.35
2022-07-26T01:26:20.083Z,5.90
2022-07-26T01:28:49.361Z,6.20
2022-07-26T01:31:16.126Z,6.25
2022-07-26T01:33:42.770Z,7.07
2022-07-26T01:36:09.746Z,5.25
2022-07-26T01:38:36.415Z,5.57
2022-07-26T01:41:03.067Z,5.50
2022-07-26T01:43:29.845Z,6.28
2022-07-26T01:45:56.589Z,4.63
2022-07-26T01:48:23.340Z,4.35
2022-07-26T01:50:50.070Z,4.50
2022-07-26T01:53:16.875Z,4.80
2022-07-26T01:55:43.616Z,4.30
2022-07-26T01:58:10.241Z,4.65
2022-07-26T02:00:36.989Z,4.82
2022-07-26T02:03:03.757Z,4.43
2022-07-26T02:05:30.523Z,4.25
2022-07-26T02:07:57.284Z,4.38
2022-07-26T02:10:23.958Z,4.38
2022-07-26T02:12:52.457Z,3.58
2022-07-26T02:15:19.198Z,4.78
2022-07-26T02:17:45.895Z,4.47
2022-07-26T02:20:12.855Z,4.70
2022-07-26T02:22:39.561Z,4.70
2022-07-26T02:25:06.643Z,4.28
2022-07-26T02:27:33.344Z,4.60
2022-07-26T02:29:59.989Z,4.78
2022-07-26T02:32:26.739Z,4.03
2022-07-26T02:34:53.482Z,4.38
2022-07-26T02:37:20.098Z,4.65
2022-07-26T02:39:46.897Z,4.00
2022-07-26T02:42:13.664Z,4.00
2022-07-26T02:44:41.486Z,4.80
2022-07-26T02:47:08.151Z,3.90
2022-07-26T02:49:34.801Z,4.13
2022-07-26T02:52:01.470Z,4.13
2022-07-26T02:54:28.084Z,3.38
2022-07-26T02:56:54.709Z,3.53
2022-07-26T02:59:21.356Z,4.20
2022-07-26T03:01:48.312Z,3.65
2022-07-26T03:04:14.999Z,3.60
2022-07-26T03:06:41.607Z,3.45
2022-07-26T03:09:08.492Z,3.80
2022-07-26T03:11:35.101Z,4.68
2022-07-26T03:14:02.040Z,4.13
2022-07-26T03:16:29.772Z,3.80
2022-07-26T03:18:56.914Z,3.67
2022-07-26T03:21:23.856Z,4.47
2022-07-26T03:23:50.458Z,3.78
2022-07-26T03:26:17.101Z,4.10
2022-07-26T03:28:44.516Z,4.07
2022-07-26T03:31:12.817Z,3.28
2022-07-26T03:33:40.204Z,3.38
2022-07-26T03:36:11.491Z,4.15
2022-07-26T03:41:06.182Z,3.40
2022-07-26T03:43:36.294Z,3.72
2022-07-26T03:46:03.284Z,4.25
2022-07-26T03:48:31.092Z,4.32
2022-07-26T03:50:57.847Z,4.47
2022-07-26T03:53:24.490Z,4.35
2022-07-26T03:56:11.447Z,4.50
2022-07-26T03:58:38.265Z,3.80
2022-07-26T04:01:04.951Z,4.50
2022-07-26T04:03:31.674Z,4.93
2022-07-26T04:05:58.477Z,4.78
2022-07-26T04:08:25.217Z,4.90
2022-07-26T04:10:52.192Z,5.00
2022-07-26T04:13:19.799Z,4.13
2022-07-26T04:15:46.536Z,4.38
2022-07-26T04:18:14.320Z,4.03
2022-07-26T04:20:41.417Z,5.47
2022-07-26T04:23:11.321Z,4.45
2022-07-26T04:25:41.405Z,4.53
2022-07-26T04:28:09.039Z,4.45
2022-07-26T04:30:35.957Z,4.65
2022-07-26T04:33:02.646Z,4.38
2022-07-26T04:35:29.280Z,4.38
2022-07-26T04:37:56.265Z,4.60
2022-07-26T04:40:23.738Z,5.22
2022-07-26T04:42:50.817Z,5.38
2022-07-26T04:45:17.675Z,4.70
2022-07-26T04:47:45.127Z,4.68
2022-07-26T04:50:16.171Z,5.72
2022-07-26T04:52:42.817Z,4.28
2022-07-26T04:55:10.028Z,6.03
2022-07-26T04:57:36.768Z,4.90
2022-07-26T05:00:24.369Z,4.68
2022-07-26T05:02:54.962Z,5.13
2022-07-26T05:05:22.371Z,5.22
2022-07-26T05:07:51.034Z,4.25
2022-07-26T05:10:17.881Z,4.22
2022-07-26T05:12:45.961Z,5.22
2022-07-26T05:15:14.092Z,4.47
2022-07-26T05:17:41.510Z,4.53
2022-07-26T05:20:09.161Z,4.68
2022-07-26T05:22:36.162Z,4.20
2022-07-26T05:25:03.443Z,4.13
2022-07-26T05:27:30.234Z,4.65
2022-07-26T05:29:57.084Z,4.35
2022-07-26T05:32:24.218Z,4.75
2022-07-26T05:34:50.854Z,3.60
2022-07-26T05:37:17.462Z,4.80
2022-07-26T05:39:44.094Z,4.78
2022-07-26T05:42:10.797Z,4.57
2022-07-26T05:44:42.533Z,3.97
2022-07-26T05:47:09.815Z,3.95
2022-07-26T05:49:40.561Z,3.40
2022-07-26T05:52:08.208Z,4.07
2022-07-26T05:54:35.055Z,3.83
2022-07-26T05:57:01.725Z,5.63
2022-07-26T05:59:28.444Z,5.30
2022-07-26T06:01:56.320Z,5.00
2022-07-26T06:04:25.987Z,5.43
2022-07-26T06:06:54.713Z,5.15
2022-07-26T06:09:22.370Z,4.25
2022-07-26T06:11:49.056Z,3.55
2022-07-26T06:14:15.780Z,4.50
2022-07-26T06:16:42.540Z,4.57
2022-07-26T06:19:09.266Z,3.90
2022-07-26T06:21:35.966Z,4.25
2022-07-26T06:24:02.773Z,4.28
2022-07-26T06:26:29.965Z,4.28
2022-07-26T06:28:56.561Z,5.65
2022-07-26T06:31:23.196Z,4.72
2022-07-26T06:33:51.285Z,4.85
2022-07-26T06:36:18.029Z,4.85
2022-07-26T06:38:44.704Z,4.82
2022-07-26T06:41:11.683Z,4.90
2022-07-26T06:43:38.371Z,4.07
2022-07-26T06:46:05.165Z,4.43
2022-07-26T06:48:32.067Z,5.15
2022-07-26T06:51:01.425Z,5.22
2022-07-26T06:53:28.162Z,5.78
2022-07-26T06:55:54.876Z,5.25
2022-07-26T06:58:21.722Z,5.28
2022-07-26T07:00:48.517Z,5.22
2022-07-26T07:03:15.258Z,4.70
2022-07-26T07:05:45.401Z,5.20
2022-07-26T07:08:16.097Z,5.47
2022-07-26T07:10:44.058Z,5.82
2022-07-26T07:13:10.798Z,6.03
2022-07-26T07:15:37.496Z,5.70
2022-07-26T07:18:04.430Z,5.03
2022-07-26T07:20:31.071Z,5.63
2022-07-26T07:22:57.775Z,5.45
2022-07-26T07:25:27.549Z,3.83
2022-07-26T07:27:57.873Z,4.18
2022-07-26T07:30:25.103Z,4.40
2022-07-26T07:32:55.618Z,4.53
2022-07-26T07:35:23.546Z,4.03
2022-07-26T07:37:52.629Z,4.38
2022-07-26T07:40:20.066Z,4.68
2022-07-26T07:42:46.702Z,3.72
2022-07-26T07:45:13.444Z,4.00
2022-07-26T07:47:40.287Z,3.78
2022-07-26T07:50:07.695Z,4.43
2022-07-26T07:52:34.363Z,4.22
2022-07-26T07:55:36.035Z,4.18
2022-07-26T07:57:47.878Z,4.60
2022-07-26T08:00:16.840Z,4.15
2022-07-26T08:02:45.530Z,4.07
2022-07-26T08:05:15.231Z,4.78
2022-07-26T08:07:42.446Z,5.88
2022-07-26T08:10:09.502Z,5.65
2022-07-26T08:12:36.318Z,3.50
2022-07-26T08:15:07.576Z,3.80
2022-07-26T08:17:35.747Z,3.65
2022-07-26T08:20:08.959Z,3.22
2022-07-26T08:22:41.609Z,3.60
2022-07-26T08:25:08.985Z,4.00
2022-07-26T08:27:40.988Z,4.60
2022-07-26T08:30:08.594Z,4.50
2022-07-26T08:32:35.704Z,4.80
2022-07-26T08:35:17.751Z,4.40
2022-07-26T08:37:46.702Z,3.47
2022-07-26T08:40:13.395Z,4.25
2022-07-26T08:42:40.166Z,4.20
2022-07-26T08:45:07.292Z,3.88
2022-07-26T08:47:36.298Z,4.25
2022-07-26T08:50:09.711Z,3.75
2022-07-26T08:52:40.061Z,5.20
2022-07-26T08:55:07.061Z,4.07
2022-07-26T08:57:34.071Z,3.33
2022-07-26T09:00:21.378Z,4.40
2022-07-26T09:02:51.909Z,4.10
2022-07-26T09:05:20.598Z,3.97
2022-07-26T09:07:47.308Z,4.32
2022-07-26T09:10:17.147Z,3.35
2022-07-26T09:12:43.913Z,3.60
2022-07-26T09:15:20.634Z,3.55
2022-07-26T09:17:50.588Z,3.70
2022-07-26T09:20:24.264Z,4.22
2022-07-26T09:23:00.289Z,5.35
2022-07-26T09:25:27.483Z,3.58
2022-07-26T09:27:54.429Z,2.90
2022-07-26T09:30:21.093Z,3.40
2022-07-26T09:33:04.063Z,2.92
2022-07-26T09:35:50.826Z,2.63
2022-07-26T09:38:18.599Z,2.83
2022-07-26T09:40:46.828Z,2.67
2022-07-26T09:43:19.712Z,3.40
2022-07-26T09:46:02.947Z,2.67
2022-07-26T09:48:36.645Z,2.78
2022-07-26T09:51:13.545Z,3.08
2022-07-26T09:53:41.873Z,3.00
2022-07-26T09:56:09.166Z,2.53
2022-07-26T09:58:36.569Z,3.72
2022-07-26T10:01:04.994Z,3.28
2022-07-26T10:03:32.032Z,3.30
2022-07-26T10:05:58.984Z,3.35
2022-07-26T10:08:26.367Z,2.67
2022-07-26T10:10:55.799Z,2.85
2022-07-26T10:13:22.797Z,2.90
2022-07-26T10:15:50.349Z,3.42
2022-07-26T10:23:57.471Z,2.78
2022-07-26T10:26:40.499Z,2.58
2022-07-26T10:29:21.175Z,2.97
2022-07-26T10:31:50.341Z,2.97
2022-07-26T10:34:33.831Z,3.55
2022-07-26T10:37:02.082Z,3.63
2022-07-26T10:39:28.802Z,3.22
2022-07-26T10:42:10.819Z,3.95
2022-07-26T10:44:39.151Z,3.20
2022-07-26T10:47:11.329Z,2.85
2022-07-26T10:49:39.683Z,3.03
2022-07-26T10:52:24.793Z,3.00
2022-07-26T10:55:07.226Z,3.05
2022-07-26T10:57:48.952Z,3.60
2022-07-26T11:00:19.114Z,3.67
2022-07-26T11:02:48.661Z,4.65
2022-07-26T11:05:16.540Z,3.67
2022-07-26T11:08:06.181Z,2.65
2022-07-26T11:10:35.599Z,2.38
2022-07-26T11:13:06.624Z,2.25
2022-07-26T11:15:33.801Z,2.72
2022-07-26T11:18:22.206Z,2.00
2022-07-26T11:20:52.273Z,2.38
2022-07-26T11:26:23.612Z,2.70
2022-07-26T11:31:49.745Z,2.75
2022-07-26T11:34:20.314Z,1.80
2022-07-26T11:36:47.057Z,2.13
2022-07-26T11:39:15.630Z,2.85
2022-07-26T11:41:43.053Z,2.95
2022-07-26T11:44:17.765Z,2.30
2022-07-26T11:46:47.730Z,2.92
2022-07-26T11:51:54.611Z,2.25
2022-07-26T11:54:22.018Z,2.53
2022-07-26T11:56:51.707Z,2.28
2022-07-26T11:59:18.454Z,2.40
2022-07-26T12:01:49.826Z,2.28
2022-07-26T12:04:21.777Z,2.88
2022-07-26T12:06:48.653Z,3.13
2022-07-26T12:09:36.516Z,3.08
2022-07-26T12:12:05.433Z,2.90
2022-07-26T12:14:33.887Z,2.78
2022-07-26T12:17:12.121Z,3.10
2022-07-26T12:19:39.452Z,2.50
2022-07-26T12:22:14.711Z,3.15
2022-07-26T12:24:57.197Z,3.08
2022-07-26T12:27:28.240Z,2.60
2022-07-26T12:30:05.531Z,2.47
2022-07-26T12:32:33.442Z,3.33
2022-07-26T12:40:27.214Z,2.65
2022-07-26T12:43:01.271Z,3.15
2022-07-26T12:45:31.185Z,2.40
2022-07-26T12:47:58.627Z,2.60
2022-07-26T12:50:26.413Z,1.98
2022-07-26T12:53:00.967Z,2.00
2022-07-26T12:55:27.577Z,2.72
2022-07-26T12:57:55.920Z,2.15
2022-07-26T13:00:23.867Z,2.40
2022-07-26T13:02:51.118Z,2.38
2022-07-26T13:05:17.960Z,2.67
2022-07-26T13:07:44.726Z,2.22
2022-07-26T13:12:59.065Z,2.17
2022-07-26T13:15:36.839Z,2.53
2022-07-26T13:18:05.845Z,2.47
2022-07-26T13:20:32.598Z,2.47
2022-07-26T13:22:59.368Z,2.15
2022-07-26T13:25:29.029Z,2.08
2022-07-26T13:28:03.868Z,2.30
2022-07-26T13:30:30.526Z,2.67
2022-07-26T13:32:57.158Z,2.33
2022-07-26T13:35:24.284Z,2.53
2022-07-26T13:37:50.869Z,1.98
2022-07-26T13:40:17.616Z,2.03
2022-07-26T13:42:44.381Z,2.80
2022-07-26T13:45:14.187Z,2.22
2022-07-26T13:47:40.955Z,2.03
2022-07-26T13:50:08.062Z,2.00
2022-07-26T13:52:34.659Z,1.77
2022-07-26T13:55:01.426Z,2.47
2022-07-26T13:57:39.134Z,2.30
2022-07-26T14:00:15.119Z,1.63
2022-07-26T14:02:41.757Z,2.60
2022-07-26T14:05:08.957Z,3.13
2022-07-26T14:07:35.675Z,2.70
2022-07-26T14:10:02.386Z,2.45
2022-07-26T14:12:29.184Z,2.83
2022-07-26T14:14:55.931Z,3.28
2022-07-26T14:17:22.571Z,2.33
2022-07-26T14:19:49.172Z,2.25
2022-07-26T14:22:15.810Z,2.42
2022-07-26T14:24:42.456Z,2.67
2022-07-26T14:27:09.068Z,2.63
2022-07-26T14:29:35.954Z,2.15
2022-07-26T14:32:03.266Z,2.88
2022-07-26T14:34:29.906Z,2.97
2022-07-26T14:36:56.540Z,2.70
2022-07-26T14:39:23.233Z,3.50
2022-07-26T14:41:50.171Z,2.75
2022-07-26T14:44:16.782Z,2.88
2022-07-26T14:46:44.362Z,3.55
2022-07-26T14:49:11.030Z,3.42
2022-07-26T14:51:37.636Z,2.17
2022-07-26T14:54:04.741Z,2.38
2022-07-26T14:56:31.437Z,2.53
2022-07-26T14:58:58.032Z,2.53
2022-07-26T15:01:24.665Z,2.28
2022-07-26T15:03:51.545Z,2.95
2022-07-26T15:06:18.269Z,2.03
2022-07-26T15:08:44.991Z,2.92
2022-07-26T15:11:11.611Z,2.75
2022-07-26T15:13:38.471Z,3.28
2022-07-26T15:16:05.464Z,2.95
2022-07-26T15:18:32.379Z,2.75
2022-07-26T15:20:58.998Z,2.78
2022-07-26T15:23:26.233Z,2.20
2022-07-26T15:25:52.849Z,2.40
2022-07-26T15:28:19.519Z,2.00
2022-07-26T15:30:46.308Z,2.53
2022-07-26T15:33:14.374Z,2.40
2022-07-26T15:35:41.318Z,2.17
2022-07-26T15:38:08.067Z,2.35
2022-07-26T15:40:34.972Z,1.90
2022-07-26T15:43:01.565Z,2.83
2022-07-26T15:45:28.587Z,2.45
2022-07-26T15:48:09.418Z,2.03
2022-07-26T15:50:41.521Z,2.72
2022-07-26T15:53:08.100Z,2.22
2022-07-26T15:55:34.717Z,2.67
2022-07-26T15:58:01.567Z,2.83
2022-07-26T16:00:28.250Z,2.70
2022-07-26T16:02:55.013Z,2.33
2022-07-26T16:05:21.640Z,2.15
2022-07-26T16:07:48.384Z,2.53
2022-07-26T16:10:16.111Z,2.40
2022-07-26T16:12:43.037Z,3.20
2022-07-26T16:15:10.339Z,2.53
2022-07-26T16:17:37.060Z,2.90
2022-07-26T16:20:04.394Z,2.78
2022-07-26T16:22:31.605Z,4.32
2022-07-26T16:24:58.295Z,3.55
2022-07-26T16:27:25.145Z,3.80
2022-07-26T16:29:52.718Z,3.55
2022-07-26T16:32:20.972Z,2.83
2022-07-26T16:34:47.648Z,2.72
2022-07-26T16:37:14.384Z,3.22
2022-07-26T16:39:41.013Z,3.15
2022-07-26T16:42:07.740Z,3.13
2022-07-26T16:44:35.923Z,3.78
2022-07-26T16:47:02.785Z,2.72
2022-07-26T16:49:29.598Z,4.25
2022-07-26T16:51:57.217Z,4.15
2022-07-26T16:54:23.894Z,3.25
2022-07-26T16:56:50.577Z,3.05
2022-07-26T16:59:17.827Z,2.83
2022-07-26T17:01:45.308Z,2.80
2022-07-26T17:04:11.996Z,3.53
2022-07-26T17:06:38.919Z,4.28
2022-07-26T17:09:05.679Z,3.35
2022-07-26T17:11:32.331Z,2.78
2022-07-26T17:13:59.676Z,3.72
2022-07-26T17:16:26.653Z,2.75
2022-07-26T17:18:54.253Z,2.75
2022-07-26T17:21:21.353Z,3.00
2022-07-26T17:23:48.673Z,2.35
2022-07-26T17:26:16.375Z,2.70
2022-07-26T17:28:43.001Z,2.58
2022-07-26T17:31:09.929Z,2.60
2022-07-26T17:33:36.590Z,2.28
2022-07-26T17:36:23.333Z,2.80
2022-07-26T17:38:50.092Z,2.22
2022-07-26T17:41:17.590Z,2.72
2022-07-26T17:43:45.422Z,3.20
2022-07-26T17:46:12.160Z,3.45
2022-07-26T17:48:39.503Z,2.58
2022-07-26T17:51:06.303Z,3.17
2022-07-26T17:53:34.595Z,2.80
2022-07-26T17:56:02.009Z,2.45
2022-07-26T17:58:28.634Z,2.85
2022-07-26T18:00:55.228Z,2.72
2022-07-26T18:03:23.024Z,3.05
2022-07-26T18:05:50.399Z,2.78
2022-07-26T18:08:17.149Z,3.50
2022-07-26T18:10:48.970Z,3.03
2022-07-26T18:13:17.731Z,2.65
2022-07-26T18:15:44.574Z,2.63
2022-07-26T18:18:11.334Z,2.45
2022-07-26T18:20:38.048Z,2.90
2022-07-26T18:23:04.794Z,3.20
2022-07-26T18:25:31.442Z,3.00
2022-07-26T18:28:00.885Z,3.17
2022-07-26T18:30:32.045Z,3.47
2022-07-26T18:32:59.147Z,3.47
2022-07-26T18:35:25.740Z,3.15
2022-07-26T18:37:52.902Z,3.22
2022-07-26T18:40:21.638Z,3.28
2022-07-26T18:42:48.501Z,3.83
2022-07-26T18:45:15.230Z,2.00
2022-07-26T18:47:41.997Z,2.78
2022-07-26T18:50:09.506Z,3.35
2022-07-26T18:52:36.320Z,3.53
2022-07-26T18:55:06.925Z,3.63
2022-07-26T18:57:34.976Z,3.33
2022-07-26T19:00:02.099Z,3.33
2022-07-26T19:02:29.308Z,3.45
2022-07-26T19:04:56.250Z,3.47
2022-07-26T19:07:23.028Z,3.58
2022-07-26T19:09:52.591Z,3.10
2022-07-26T19:12:21.599Z,3.78
2022-07-26T19:14:48.213Z,3.58
2022-07-26T19:17:14.853Z,3.15
2022-07-26T19:19:42.868Z,3.83
2022-07-26T19:22:09.550Z,3.42
2022-07-26T19:24:36.868Z,4.10
2022-07-26T19:27:03.750Z,4.07
2022-07-26T19:29:30.673Z,5.30
2022-07-26T19:31:57.481Z,3.85
2022-07-26T19:34:26.332Z,2.92
2022-07-26T19:36:53.189Z,2.80
2022-07-26T19:39:20.333Z,3.20
2022-07-26T19:41:48.080Z,2.95
2022-07-26T19:44:15.390Z,2.88
2022-07-26T19:46:42.275Z,3.13
2022-07-26T19:49:10.964Z,3.50
2022-07-26T19:51:39.330Z,3.50
2022-07-26T19:54:06.075Z,3.30
2022-07-26T19:56:32.807Z,3.28
2022-07-26T19:59:00.376Z,3.42
2022-07-26T20:01:28.826Z,3.55
2022-07-26T20:03:55.759Z,3.85
2022-07-26T20:06:23.108Z,3.25
2022-07-26T20:08:50.448Z,3.30
2022-07-26T20:11:19.647Z,3.75
2022-07-26T20:13:46.999Z,3.80
2022-07-26T20:16:13.746Z,3.58
2022-07-26T20:18:40.398Z,3.47
2022-07-26T20:21:07.051Z,4.43
2022-07-26T20:23:33.875Z,3.63
2022-07-26T20:26:01.080Z,3.45
2022-07-26T20:28:27.666Z,3.58
2022-07-26T20:30:54.957Z,3.55
2022-07-26T20:33:21.844Z,2.95
2022-07-26T20:35:54.488Z,3.08
2022-07-26T20:38:21.576Z,3.72
2022-07-26T20:40:48.156Z,3.75
2022-07-26T20:43:14.871Z,3.30
2022-07-26T20:45:41.530Z,4.03
2022-07-26T20:48:08.429Z,4.22
2022-07-26T20:50:36.361Z,4.75
2022-07-26T20:53:03.371Z,4.40
2022-07-26T20:55:29.991Z,3.50
2022-07-26T20:57:56.583Z,3.80
2022-07-26T21:00:24.781Z,4.22
2022-07-26T21:02:53.569Z,3.38
2022-07-26T21:05:20.398Z,4.05
2022-07-26T21:07:53.493Z,3.95
2022-07-26T21:10:25.860Z,4.47
2022-07-26T21:12:53.096Z,4.32
2022-07-26T21:15:19.687Z,4.28
2022-07-26T21:17:46.329Z,4.03
2022-07-26T21:20:13.127Z,4.53
2022-07-26T21:22:39.808Z,4.07
2022-07-26T21:25:07.205Z,5.45
2022-07-26T21:27:33.862Z,5.18
2022-07-26T21:30:00.519Z,5.35
2022-07-26T21:32:31.332Z,4.45
2022-07-26T21:34:58.931Z,4.03
2022-07-26T21:37:25.662Z,4.43
2022-07-26T21:39:52.416Z,4.97
2022-07-26T21:42:19.014Z,4.53
2022-07-26T21:44:45.618Z,4.63
2022-07-26T21:47:12.346Z,4.45
2022-07-26T21:49:38.970Z,3.95
2022-07-26T21:52:05.754Z,4.43
2022-07-26T21:54:32.371Z,4.82
2022-07-26T21:56:59.015Z,4.00
2022-07-26T21:59:25.711Z,4.80
2022-07-26T22:01:52.457Z,4.32
2022-07-26T22:04:19.316Z,4.28
2022-07-26T22:06:46.042Z,4.05
2022-07-26T22:09:12.994Z,3.67
2022-07-26T22:11:39.976Z,3.53
2022-07-26T22:14:08.202Z,4.15
2022-07-26T22:16:35.226Z,4.63
2022-07-26T22:19:07.444Z,4.78
2022-07-26T22:21:34.309Z,4.65
2022-07-26T22:24:00.948Z,3.97
2022-07-26T22:26:31.238Z,4.97
2022-07-26T22:28:58.551Z,4.00
2022-07-26T22:31:25.295Z,4.30
2022-07-26T22:33:52.150Z,4.55
2022-07-26T22:36:18.831Z,3.95
2022-07-26T22:38:46.280Z,5.10
2022-07-26T22:41:12.927Z,5.95
2022-07-26T22:43:39.655Z,5.25
2022-07-26T22:46:06.400Z,5.18
2022-07-26T22:48:35.930Z,5.18
2022-07-26T22:51:04.854Z,4.63
2022-07-26T22:53:31.801Z,4.78
2022-07-26T22:55:58.455Z,4.65
2022-07-26T22:58:25.227Z,5.25
2022-07-26T23:00:51.954Z,4.00
2022-07-26T23:03:21.407Z,4.80
2022-07-26T23:05:49.154Z,4.75
2022-07-26T23:11:03.102Z,4.82
2022-07-26T23:13:29.695Z,5.22
2022-07-26T23:16:00.544Z,4.53
2022-07-26T23:18:27.914Z,4.90
2022-07-26T23:20:54.545Z,5.75
2022-07-26T23:23:21.163Z,4.30
2022-07-26T23:25:47.818Z,4.75
2022-07-26T23:28:35.257Z,4.70
2022-07-26T23:31:05.357Z,4.63
2022-07-26T23:33:53.240Z,4.55
2022-07-26T23:36:18.606Z,4.85
2022-07-26T23:38:45.402Z,4.40
2022-07-26T23:41:11.986Z,4.60
2022-07-26T23:43:38.632Z,4.75
2022-07-26T23:46:05.296Z,4.40
2022-07-26T23:48:32.157Z,4.55
2022-07-26T23:50:58.813Z,5.30
2022-07-26T23:53:27.102Z,4.85
2022-07-26T23:55:54.156Z,4.28
2022-07-26T23:58:20.839Z,4.68
